sensor_id;sensor_type;location;lat;lon;timestamp;pressure;altitude;pressure_sealevel;temperature;humidity
12676;BME280;63820;65.654;21.944;2023-05-02T00:00:35;100559.53;;;-3.39;100.00
12676;BME280;63820;65.654;21.944;2023-05-02T00:03:20;100561.13;;;-3.45;100.00
12676;BME280;63820;65.654;21.944;2023-05-02T00:06:04;100573.81;;;-3.47;100.00
12676;BME280;63820;65.654;21.944;2023-05-02T00:08:48;100570.34;;;-3.52;100.00
12676;BME280;63820;65.654;21.944;2023-05-02T00:11:33;100572.81;;;-3.58;100.00
12676;BME280;63820;65.654;21.944;2023-05-02T00:14:17;100570.13;;;-3.67;100.00
12676;BME280;63820;65.654;21.944;2023-05-02T00:17:01;100564.94;;;-3.73;100.00
12676;BME280;63820;65.654;21.944;2023-05-02T00:19:46;100563.31;;;-3.68;100.00
12676;BME280;63820;65.654;21.944;2023-05-02T00:22:30;100566.78;;;-3.63;100.00
12676;BME280;63820;65.654;21.944;2023-05-02T00:25:15;100570.22;;;-3.61;100.00
12676;BME280;63820;65.654;21.944;2023-05-02T00:28:00;100571.91;;;-3.60;100.00
12676;BME280;63820;65.654;21.944;2023-05-02T00:30:44;100581.22;;;-3.60;100.00
12676;BME280;63820;65.654;21.944;2023-05-02T00:33:29;100576.84;;;-3.69;100.00
12676;BME280;63820;65.654;21.944;2023-05-02T00:38:58;100582.75;;;-3.72;100.00
12676;BME280;63820;65.654;21.944;2023-05-02T00:41:42;100581.88;;;-3.74;100.00
12676;BME280;63820;65.654;21.944;2023-05-02T00:44:26;100564.69;;;-3.88;100.00
12676;BME280;63820;65.654;21.944;2023-05-02T00:47:10;100579.91;;;-3.90;100.00
12676;BME280;63820;65.654;21.944;2023-05-02T00:49:54;100585.69;;;-3.99;100.00
12676;BME280;63820;65.654;21.944;2023-05-02T00:52:38;100585.72;;;-3.97;100.00
12676;BME280;63820;65.654;21.944;2023-05-02T00:55:22;100583.13;;;-3.99;100.00
12676;BME280;63820;65.654;21.944;2023-05-02T00:58:10;100577.84;;;-4.11;100.00
12676;BME280;63820;65.654;21.944;2023-05-02T01:10:47;100582.69;;;-4.26;100.00
12676;BME280;63820;65.654;21.944;2023-05-02T01:13:33;100578.38;;;-4.30;100.00
12676;BME280;63820;65.654;21.944;2023-05-02T01:16:19;100578.28;;;-4.35;100.00
12676;BME280;63820;65.654;21.944;2023-05-02T01:19:12;100585.81;;;-4.39;100.00
12676;BME280;63820;65.654;21.944;2023-05-02T01:22:06;100592.53;;;-4.43;100.00
12676;BME280;63820;65.654;21.944;2023-05-02T01:30:42;100598.34;;;-4.48;100.00
12676;BME280;63820;65.654;21.944;2023-05-02T01:33:29;100591.56;;;-4.48;100.00
12676;BME280;63820;65.654;21.944;2023-05-02T01:36:16;100596.72;;;-4.45;100.00
12676;BME280;63820;65.654;21.944;2023-05-02T01:39:00;100599.28;;;-4.43;100.00
12676;BME280;63820;65.654;21.944;2023-05-02T01:41:49;100591.63;;;-4.46;100.00
12676;BME280;63820;65.654;21.944;2023-05-02T01:44:35;100589.97;;;-4.44;100.00
12676;BME280;63820;65.654;21.944;2023-05-02T01:47:21;100593.31;;;-4.45;100.00
12676;BME280;63820;65.654;21.944;2023-05-02T01:50:10;100602.59;;;-4.47;100.00
12676;BME280;63820;65.654;21.944;2023-05-02T01:52:57;100598.25;;;-4.53;100.00
12676;BME280;63820;65.654;21.944;2023-05-02T01:55:43;100599.13;;;-4.51;100.00
12676;BME280;63820;65.654;21.944;2023-05-02T01:58:29;100602.53;;;-4.50;100.00
12676;BME280;63820;65.654;21.944;2023-05-02T02:01:15;100606.75;;;-4.51;100.00
12676;BME280;63820;65.654;21.944;2023-05-02T02:04:03;100608.47;;;-4.50;100.00
12676;BME280;63820;65.654;21.944;2023-05-02T02:06:55;100605.91;;;-4.51;100.00
12676;BME280;63820;65.654;21.944;2023-05-02T02:09:40;100610.09;;;-4.53;100.00
12676;BME280;63820;65.654;21.944;2023-05-02T02:12:26;100615.22;;;-4.50;100.00
12676;BME280;63820;65.654;21.944;2023-05-02T02:18:19;100604.25;;;-4.49;100.00
12676;BME280;63820;65.654;21.944;2023-05-02T02:21:10;100604.31;;;-4.46;100.00
12676;BME280;63820;65.654;21.944;2023-05-02T02:23:56;100606.03;;;-4.44;100.00
12676;BME280;63820;65.654;21.944;2023-05-02T02:26:42;100610.34;;;-4.40;100.00
12676;BME280;63820;65.654;21.944;2023-05-02T02:29:27;100606.31;;;-4.30;100.00
12676;BME280;63820;65.654;21.944;2023-05-02T02:32:11;100605.59;;;-4.23;100.00
12676;BME280;63820;65.654;21.944;2023-05-02T02:34:56;100600.59;;;-4.18;100.00
12676;BME280;63820;65.654;21.944;2023-05-02T02:37:53;100607.47;;;-4.11;100.00
12676;BME280;63820;65.654;21.944;2023-05-02T02:41:12;100613.44;;;-4.09;100.00
12676;BME280;63820;65.654;21.944;2023-05-02T02:47:04;100614.44;;;-4.01;100.00
12676;BME280;63820;65.654;21.944;2023-05-02T02:50:04;100611.91;;;-4.00;100.00
12676;BME280;63820;65.654;21.944;2023-05-02T02:53:08;100618.72;;;-3.99;100.00
12676;BME280;63820;65.654;21.944;2023-05-02T02:56:20;100617.16;;;-3.90;100.00
12676;BME280;63820;65.654;21.944;2023-05-02T03:02:27;100619.38;;;-3.59;100.00
12676;BME280;63820;65.654;21.944;2023-05-02T03:05:14;100629.72;;;-3.48;100.00
12676;BME280;63820;65.654;21.944;2023-05-02T03:07:59;100617.09;;;-3.44;100.00
12676;BME280;63820;65.654;21.944;2023-05-02T03:10:43;100630.78;;;-3.36;100.00
12676;BME280;63820;65.654;21.944;2023-05-02T03:13:27;100630.00;;;-3.32;100.00
12676;BME280;63820;65.654;21.944;2023-05-02T03:16:34;100633.50;;;-3.23;100.00
12676;BME280;63820;65.654;21.944;2023-05-02T03:19:19;100641.25;;;-3.16;100.00
12676;BME280;63820;65.654;21.944;2023-05-02T03:22:04;100620.97;;;-3.10;100.00
12676;BME280;63820;65.654;21.944;2023-05-02T03:24:48;100637.34;;;-2.91;100.00
12676;BME280;63820;65.654;21.944;2023-05-02T03:27:32;100640.19;;;-2.70;100.00
12676;BME280;63820;65.654;21.944;2023-05-02T03:30:16;100642.19;;;-2.44;100.00
12676;BME280;63820;65.654;21.944;2023-05-02T03:33:01;100640.19;;;-1.92;100.00
12676;BME280;63820;65.654;21.944;2023-05-02T03:35:47;100642.28;;;-1.52;100.00
12676;BME280;63820;65.654;21.944;2023-05-02T03:38:31;100635.16;;;-0.65;100.00
12676;BME280;63820;65.654;21.944;2023-05-02T03:41:15;100645.69;;;0.78;100.00
12676;BME280;63820;65.654;21.944;2023-05-02T03:43:59;100648.34;;;2.48;100.00
12676;BME280;63820;65.654;21.944;2023-05-02T03:46:43;100643.75;;;4.80;100.00
12676;BME280;63820;65.654;21.944;2023-05-02T03:49:27;100651.53;;;6.82;100.00
12676;BME280;63820;65.654;21.944;2023-05-02T03:52:11;100652.97;;;8.70;96.10
12676;BME280;63820;65.654;21.944;2023-05-02T03:54:56;100647.78;;;10.15;70.47
12676;BME280;63820;65.654;21.944;2023-05-02T03:57:40;100662.22;;;11.28;60.29
12676;BME280;63820;65.654;21.944;2023-05-02T04:00:24;100663.06;;;11.47;54.23
12676;BME280;63820;65.654;21.944;2023-05-02T04:03:08;100660.91;;;10.56;52.75
12676;BME280;63820;65.654;21.944;2023-05-02T04:05:52;100662.13;;;9.07;56.65
12676;BME280;63820;65.654;21.944;2023-05-02T04:08:36;100667.81;;;7.81;58.90
12676;BME280;63820;65.654;21.944;2023-05-02T04:11:20;100667.75;;;6.17;63.11
12676;BME280;63820;65.654;21.944;2023-05-02T04:14:04;100668.50;;;4.90;72.57
12676;BME280;63820;65.654;21.944;2023-05-02T04:16:49;100663.88;;;4.01;88.58
12676;BME280;63820;65.654;21.944;2023-05-02T04:19:33;100677.53;;;3.33;100.00
12676;BME280;63820;65.654;21.944;2023-05-02T04:22:18;100676.31;;;2.86;100.00
12676;BME280;63820;65.654;21.944;2023-05-02T04:25:02;100668.81;;;2.60;100.00
12676;BME280;63820;65.654;21.944;2023-05-02T04:27:46;100676.69;;;2.34;100.00
12676;BME280;63820;65.654;21.944;2023-05-02T04:30:30;100663.13;;;2.11;100.00
12676;BME280;63820;65.654;21.944;2023-05-02T04:33:15;100671.78;;;1.98;100.00
12676;BME280;63820;65.654;21.944;2023-05-02T04:36:00;100666.75;;;1.78;100.00
12676;BME280;63820;65.654;21.944;2023-05-02T04:38:44;100668.50;;;1.70;100.00
12676;BME280;63820;65.654;21.944;2023-05-02T04:41:28;100672.00;;;1.50;100.00
12676;BME280;63820;65.654;21.944;2023-05-02T04:44:12;100671.13;;;1.51;100.00
12676;BME280;63820;65.654;21.944;2023-05-02T04:46:56;100669.41;;;1.52;100.00
12676;BME280;63820;65.654;21.944;2023-05-02T04:49:40;100672.00;;;1.49;100.00
12676;BME280;63820;65.654;21.944;2023-05-02T04:52:24;100670.25;;;1.57;100.00
12676;BME280;63820;65.654;21.944;2023-05-02T04:55:08;100671.94;;;1.67;100.00
12676;BME280;63820;65.654;21.944;2023-05-02T04:57:52;100681.25;;;1.85;100.00
12676;BME280;63820;65.654;21.944;2023-05-02T05:00:36;100672.59;;;2.06;100.00
12676;BME280;63820;65.654;21.944;2023-05-02T05:03:21;100678.47;;;2.20;100.00
12676;BME280;63820;65.654;21.944;2023-05-02T05:06:05;100683.53;;;2.32;100.00
12676;BME280;63820;65.654;21.944;2023-05-02T05:08:49;100678.31;;;2.47;100.00
12676;BME280;63820;65.654;21.944;2023-05-02T05:11:33;100678.09;;;2.78;100.00
12676;BME280;63820;65.654;21.944;2023-05-02T05:14:17;100672.69;;;3.08;100.00
12676;BME280;63820;65.654;21.944;2023-05-02T05:17:00;100682.38;;;3.61;100.00
12676;BME280;63820;65.654;21.944;2023-05-02T05:19:44;100676.59;;;4.12;100.00
12676;BME280;63820;65.654;21.944;2023-05-02T05:22:28;100676.66;;;4.64;100.00
12676;BME280;63820;65.654;21.944;2023-05-02T05:25:12;100681.09;;;5.53;93.44
12676;BME280;63820;65.654;21.944;2023-05-02T05:27:59;100683.59;;;6.75;84.16
12676;BME280;63820;65.654;21.944;2023-05-02T05:30:43;100676.78;;;7.70;74.24
12676;BME280;63820;65.654;21.944;2023-05-02T05:33:27;100674.41;;;7.62;70.14
12676;BME280;63820;65.654;21.944;2023-05-02T05:36:13;100684.25;;;7.18;69.93
12676;BME280;63820;65.654;21.944;2023-05-02T05:38:57;100678.34;;;8.05;69.79
12676;BME280;63820;65.654;21.944;2023-05-02T05:41:41;100675.25;;;9.99;62.26
12676;BME280;63820;65.654;21.944;2023-05-02T05:44:26;100682.03;;;10.26;59.03
12676;BME280;63820;65.654;21.944;2023-05-02T05:47:09;100678.88;;;12.21;55.40
12676;BME280;63820;65.654;21.944;2023-05-02T05:49:55;100680.31;;;14.15;48.69
12676;BME280;63820;65.654;21.944;2023-05-02T05:52:39;100680.09;;;16.25;44.94
12676;BME280;63820;65.654;21.944;2023-05-02T05:55:23;100681.69;;;19.39;38.78
12676;BME280;63820;65.654;21.944;2023-05-02T05:58:10;100684.59;;;22.03;32.66
12676;BME280;63820;65.654;21.944;2023-05-02T06:00:54;100690.19;;;24.19;29.35
12676;BME280;63820;65.654;21.944;2023-05-02T06:03:38;100693.06;;;23.80;28.29
12676;BME280;63820;65.654;21.944;2023-05-02T06:06:23;100688.03;;;21.01;29.02
12676;BME280;63820;65.654;21.944;2023-05-02T06:09:07;100689.97;;;19.34;31.83
12676;BME280;63820;65.654;21.944;2023-05-02T06:11:51;100692.13;;;22.07;28.90
12676;BME280;63820;65.654;21.944;2023-05-02T06:14:35;100687.84;;;20.93;30.22
12676;BME280;63820;65.654;21.944;2023-05-02T06:17:19;100687.81;;;20.40;30.34
12676;BME280;63820;65.654;21.944;2023-05-02T06:20:04;100695.03;;;24.33;27.48
12676;BME280;63820;65.654;21.944;2023-05-02T06:22:49;100697.88;;;26.89;24.76
12676;BME280;63820;65.654;21.944;2023-05-02T06:25:36;100700.94;;;27.90;23.87
12676;BME280;63820;65.654;21.944;2023-05-02T06:28:20;100699.91;;;27.91;23.52
12676;BME280;63820;65.654;21.944;2023-05-02T06:31:05;100702.75;;;29.43;21.45
12676;BME280;63820;65.654;21.944;2023-05-02T06:33:49;100706.13;;;31.04;20.52
12676;BME280;63820;65.654;21.944;2023-05-02T06:36:34;100708.22;;;31.64;19.58
12676;BME280;63820;65.654;21.944;2023-05-02T06:39:18;100703.31;;;29.53;20.70
12676;BME280;63820;65.654;21.944;2023-05-02T06:42:02;100703.22;;;29.46;20.95
12676;BME280;63820;65.654;21.944;2023-05-02T06:44:46;100699.56;;;26.90;21.88
12676;BME280;63820;65.654;21.944;2023-05-02T06:47:31;100702.31;;;29.31;19.73
12676;BME280;63820;65.654;21.944;2023-05-02T06:50:15;100706.16;;;29.96;19.84
12676;BME280;63820;65.654;21.944;2023-05-02T06:52:59;100704.78;;;30.36;19.12
12676;BME280;63820;65.654;21.944;2023-05-02T06:55:44;100706.09;;;29.74;20.06
12676;BME280;63820;65.654;21.944;2023-05-02T06:58:30;100709.59;;;29.89;19.50
12676;BME280;63820;65.654;21.944;2023-05-02T07:01:15;100715.81;;;32.23;17.57
12676;BME280;63820;65.654;21.944;2023-05-02T07:04:02;100721.94;;;31.69;17.86
12676;BME280;63820;65.654;21.944;2023-05-02T07:06:49;100708.81;;;31.04;17.80
12676;BME280;63820;65.654;21.944;2023-05-02T07:09:33;100711.19;;;31.69;17.89
12676;BME280;63820;65.654;21.944;2023-05-02T07:12:17;100720.84;;;32.53;17.39
12676;BME280;63820;65.654;21.944;2023-05-02T07:15:02;100725.44;;;32.59;16.51
12676;BME280;63820;65.654;21.944;2023-05-02T07:17:46;100704.72;;;30.29;17.99
12676;BME280;63820;65.654;21.944;2023-05-02T07:20:32;100709.88;;;29.94;18.39
12676;BME280;63820;65.654;21.944;2023-05-02T07:23:16;100710.31;;;30.64;17.44
12676;BME280;63820;65.654;21.944;2023-05-02T07:26:01;100713.84;;;29.69;17.87
12676;BME280;63820;65.654;21.944;2023-05-02T07:28:45;100708.13;;;30.38;18.57
12676;BME280;63820;65.654;21.944;2023-05-02T07:31:29;100717.88;;;32.28;17.24
12676;BME280;63820;65.654;21.944;2023-05-02T07:34:13;100724.00;;;33.68;16.39
12676;BME280;63820;65.654;21.944;2023-05-02T07:36:57;100716.56;;;31.41;17.03
12676;BME280;63820;65.654;21.944;2023-05-02T07:39:41;100715.13;;;32.82;16.40
12676;BME280;63820;65.654;21.944;2023-05-02T07:42:29;100710.16;;;32.79;15.83
12676;BME280;63820;65.654;21.944;2023-05-02T07:45:13;100723.09;;;32.42;16.35
12676;BME280;63820;65.654;21.944;2023-05-02T07:47:57;100719.75;;;32.27;16.81
12676;BME280;63820;65.654;21.944;2023-05-02T07:50:41;100704.88;;;29.62;16.83
12676;BME280;63820;65.654;21.944;2023-05-02T07:53:25;100713.31;;;30.39;17.20
12676;BME280;63820;65.654;21.944;2023-05-02T07:56:10;100710.34;;;30.13;16.87
12676;BME280;63820;65.654;21.944;2023-05-02T07:58:55;100714.72;;;32.98;15.75
12676;BME280;63820;65.654;21.944;2023-05-02T08:01:40;100721.66;;;31.92;16.08
12676;BME280;63820;65.654;21.944;2023-05-02T08:04:26;100711.91;;;30.79;16.51
12676;BME280;63820;65.654;21.944;2023-05-02T08:07:10;100705.47;;;29.35;16.99
12676;BME280;63820;65.654;21.944;2023-05-02T08:09:53;100720.09;;;31.14;16.61
12676;BME280;63820;65.654;21.944;2023-05-02T08:12:39;100728.34;;;32.03;16.66
12676;BME280;63820;65.654;21.944;2023-05-02T08:15:24;100725.91;;;32.14;15.80
12676;BME280;63820;65.654;21.944;2023-05-02T08:18:08;100725.69;;;29.89;17.33
12676;BME280;63820;65.654;21.944;2023-05-02T08:20:54;100729.63;;;31.72;16.65
12676;BME280;63820;65.654;21.944;2023-05-02T08:23:40;100735.75;;;34.52;14.19
12676;BME280;63820;65.654;21.944;2023-05-02T08:26:25;100731.44;;;32.54;15.51
12676;BME280;63820;65.654;21.944;2023-05-02T08:29:09;100721.97;;;30.56;16.23
12676;BME280;63820;65.654;21.944;2023-05-02T08:31:54;100723.63;;;30.93;16.45
12676;BME280;63820;65.654;21.944;2023-05-02T08:34:38;100729.66;;;31.79;16.51
12676;BME280;63820;65.654;21.944;2023-05-02T08:37:23;100727.47;;;31.96;16.07
12676;BME280;63820;65.654;21.944;2023-05-02T08:40:10;100718.25;;;31.77;15.32
12676;BME280;63820;65.654;21.944;2023-05-02T08:42:55;100721.25;;;32.43;15.92
12676;BME280;63820;65.654;21.944;2023-05-02T08:45:42;100723.88;;;33.17;15.14
12676;BME280;63820;65.654;21.944;2023-05-02T08:48:27;100715.16;;;33.22;15.03
12676;BME280;63820;65.654;21.944;2023-05-02T08:51:13;100719.09;;;33.32;15.34
12676;BME280;63820;65.654;21.944;2023-05-02T08:53:57;100723.22;;;30.96;16.82
12676;BME280;63820;65.654;21.944;2023-05-02T08:56:43;100721.28;;;31.11;16.27
12676;BME280;63820;65.654;21.944;2023-05-02T08:59:27;100718.88;;;33.07;15.02
12676;BME280;63820;65.654;21.944;2023-05-02T09:05:22;100732.09;;;33.75;15.38
12676;BME280;63820;65.654;21.944;2023-05-02T09:08:08;100722.00;;;33.31;14.47
12676;BME280;63820;65.654;21.944;2023-05-02T09:10:52;100720.38;;;31.53;15.47
12676;BME280;63820;65.654;21.944;2023-05-02T09:16:28;100710.06;;;23.60;21.48
12676;BME280;63820;65.654;21.944;2023-05-02T09:19:22;100698.84;;;21.50;24.03
12676;BME280;63820;65.654;21.944;2023-05-02T09:22:07;100696.78;;;18.90;25.56
12676;BME280;63820;65.654;21.944;2023-05-02T09:24:54;100698.19;;;17.86;27.06
12676;BME280;63820;65.654;21.944;2023-05-02T09:27:55;100695.59;;;16.96;29.93
12676;BME280;63820;65.654;21.944;2023-05-02T09:30:40;100701.38;;;21.52;23.66
12676;BME280;63820;65.654;21.944;2023-05-02T09:33:27;100707.22;;;23.71;22.15
12676;BME280;63820;65.654;21.944;2023-05-02T09:36:14;100719.59;;;28.37;17.94
12676;BME280;63820;65.654;21.944;2023-05-02T09:39:08;100709.00;;;28.75;17.83
12676;BME280;63820;65.654;21.944;2023-05-02T09:41:53;100713.28;;;30.54;16.94
12676;BME280;63820;65.654;21.944;2023-05-02T09:44:38;100723.53;;;31.64;16.26
12676;BME280;63820;65.654;21.944;2023-05-02T09:47:25;100720.00;;;27.87;17.34
12676;BME280;63820;65.654;21.944;2023-05-02T09:50:10;100714.28;;;28.29;17.57
12676;BME280;63820;65.654;21.944;2023-05-02T09:53:05;100713.13;;;28.85;17.67
12676;BME280;63820;65.654;21.944;2023-05-02T09:56:03;100720.97;;;28.33;17.29
12676;BME280;63820;65.654;21.944;2023-05-02T09:58:47;100711.28;;;25.62;18.68
12676;BME280;63820;65.654;21.944;2023-05-02T10:01:31;100703.00;;;22.04;21.61
12676;BME280;63820;65.654;21.944;2023-05-02T10:04:15;100716.81;;;19.63;24.90
12676;BME280;63820;65.654;21.944;2023-05-02T10:07:02;100701.28;;;20.80;24.22
12676;BME280;63820;65.654;21.944;2023-05-02T10:09:47;100713.00;;;23.47;21.57
12676;BME280;63820;65.654;21.944;2023-05-02T10:12:33;100711.84;;;27.56;18.95
12676;BME280;63820;65.654;21.944;2023-05-02T10:15:20;100709.34;;;26.49;18.90
12676;BME280;63820;65.654;21.944;2023-05-02T10:18:11;100704.84;;;24.32;20.26
12676;BME280;63820;65.654;21.944;2023-05-02T10:21:00;100705.25;;;21.48;23.54
12676;BME280;63820;65.654;21.944;2023-05-02T10:23:46;100706.88;;;18.12;26.18
12676;BME280;63820;65.654;21.944;2023-05-02T10:26:33;100704.69;;;18.06;27.50
12676;BME280;63820;65.654;21.944;2023-05-02T10:29:18;100701.22;;;17.93;26.76
12676;BME280;63820;65.654;21.944;2023-05-02T10:32:03;100713.19;;;19.86;25.90
12676;BME280;63820;65.654;21.944;2023-05-02T10:34:49;100704.25;;;22.98;22.81
12676;BME280;63820;65.654;21.944;2023-05-02T10:37:37;100711.13;;;22.12;22.40
12676;BME280;63820;65.654;21.944;2023-05-02T10:40:22;100712.13;;;20.66;24.38
12676;BME280;63820;65.654;21.944;2023-05-02T10:43:07;100709.03;;;22.16;24.19
12676;BME280;63820;65.654;21.944;2023-05-02T10:45:52;100714.78;;;24.93;21.55
12676;BME280;63820;65.654;21.944;2023-05-02T10:48:37;100722.09;;;26.87;19.71
12676;BME280;63820;65.654;21.944;2023-05-02T10:51:27;100724.53;;;26.14;19.69
12676;BME280;63820;65.654;21.944;2023-05-02T10:54:20;100726.31;;;23.37;20.94
12676;BME280;63820;65.654;21.944;2023-05-02T10:57:05;100710.47;;;22.30;21.83
12676;BME280;63820;65.654;21.944;2023-05-02T10:59:50;100712.22;;;22.98;22.85
12676;BME280;63820;65.654;21.944;2023-05-02T11:05:21;100718.81;;;24.97;20.60
12676;BME280;63820;65.654;21.944;2023-05-02T11:11:38;100716.34;;;25.99;19.90
12676;BME280;63820;65.654;21.944;2023-05-02T11:17:14;100721.28;;;21.77;22.71
12676;BME280;63820;65.654;21.944;2023-05-02T11:22:49;100719.13;;;18.98;25.60
12676;BME280;63820;65.654;21.944;2023-05-02T11:25:37;100715.00;;;18.09;27.18
12676;BME280;63820;65.654;21.944;2023-05-02T11:34:12;100722.53;;;19.11;25.03
12676;BME280;63820;65.654;21.944;2023-05-02T11:36:56;100723.34;;;16.87;28.13
12676;BME280;63820;65.654;21.944;2023-05-02T11:39:41;100715.56;;;16.03;28.53
12676;BME280;63820;65.654;21.944;2023-05-02T11:42:29;100727.50;;;15.36;29.33
12676;BME280;63820;65.654;21.944;2023-05-02T11:45:14;100713.69;;;14.89;30.54
12676;BME280;63820;65.654;21.944;2023-05-02T11:47:58;100714.63;;;15.18;29.56
12676;BME280;63820;65.654;21.944;2023-05-02T11:50:44;100709.94;;;15.09;30.09
12676;BME280;63820;65.654;21.944;2023-05-02T11:53:29;100713.41;;;15.09;31.40
12676;BME280;63820;65.654;21.944;2023-05-02T11:56:14;100719.31;;;15.99;30.28
12676;BME280;63820;65.654;21.944;2023-05-02T11:58:59;100718.44;;;16.27;29.61
12676;BME280;63820;65.654;21.944;2023-05-02T12:01:48;100714.59;;;16.60;31.03
12676;BME280;63820;65.654;21.944;2023-05-02T12:04:41;100708.41;;;17.78;28.64
12676;BME280;63820;65.654;21.944;2023-05-02T12:07:45;100728.19;;;17.58;28.68
12676;BME280;63820;65.654;21.944;2023-05-02T12:10:35;100718.56;;;16.53;30.32
12676;BME280;63820;65.654;21.944;2023-05-02T12:13:22;100732.91;;;15.78;30.90
12676;BME280;63820;65.654;21.944;2023-05-02T12:16:07;100729.56;;;15.01;33.73
12676;BME280;63820;65.654;21.944;2023-05-02T12:18:51;100723.16;;;14.46;34.78
12676;BME280;63820;65.654;21.944;2023-05-02T12:21:36;100720.97;;;14.05;35.38
12676;BME280;63820;65.654;21.944;2023-05-02T12:24:20;100730.94;;;14.14;36.17
12676;BME280;63820;65.654;21.944;2023-05-02T12:27:14;100724.16;;;14.43;32.77
12676;BME280;63820;65.654;21.944;2023-05-02T12:29:58;100727.47;;;13.98;33.62
12676;BME280;63820;65.654;21.944;2023-05-02T12:32:43;100725.44;;;13.70;33.75
12676;BME280;63820;65.654;21.944;2023-05-02T12:35:29;100729.13;;;13.33;34.55
12676;BME280;63820;65.654;21.944;2023-05-02T12:38:16;100732.22;;;14.23;34.40
12676;BME280;63820;65.654;21.944;2023-05-02T12:41:00;100727.63;;;14.44;33.89
12676;BME280;63820;65.654;21.944;2023-05-02T12:43:46;100727.50;;;14.29;34.51
12676;BME280;63820;65.654;21.944;2023-05-02T12:46:30;100731.06;;;14.28;33.05
12676;BME280;63820;65.654;21.944;2023-05-02T12:49:14;100735.88;;;14.67;34.11
12676;BME280;63820;65.654;21.944;2023-05-02T12:52:00;100742.94;;;15.85;31.91
12676;BME280;63820;65.654;21.944;2023-05-02T12:54:45;100725.34;;;17.36;30.34
12676;BME280;63820;65.654;21.944;2023-05-02T12:57:29;100722.69;;;18.49;28.08
12676;BME280;63820;65.654;21.944;2023-05-02T13:00:15;100734.81;;;19.34;28.36
12676;BME280;63820;65.654;21.944;2023-05-02T13:02:59;100723.22;;;20.37;26.68
12676;BME280;63820;65.654;21.944;2023-05-02T13:05:44;100728.38;;;20.61;25.25
12676;BME280;63820;65.654;21.944;2023-05-02T13:08:28;100734.69;;;19.93;27.41
12676;BME280;63820;65.654;21.944;2023-05-02T13:11:12;100728.69;;;19.69;27.32
12676;BME280;63820;65.654;21.944;2023-05-02T13:13:57;100730.66;;;19.43;28.18
12676;BME280;63820;65.654;21.944;2023-05-02T13:16:43;100728.09;;;19.30;27.66
12676;BME280;63820;65.654;21.944;2023-05-02T13:19:27;100734.84;;;19.45;27.62
12676;BME280;63820;65.654;21.944;2023-05-02T13:22:13;100732.28;;;19.56;27.61
12676;BME280;63820;65.654;21.944;2023-05-02T13:24:57;100728.00;;;18.36;28.53
12676;BME280;63820;65.654;21.944;2023-05-02T13:27:41;100728.25;;;16.52;28.67
12676;BME280;63820;65.654;21.944;2023-05-02T13:30:25;100737.03;;;14.78;31.86
12676;BME280;63820;65.654;21.944;2023-05-02T13:33:09;100725.78;;;13.64;31.83
12676;BME280;63820;65.654;21.944;2023-05-02T13:35:53;100744.19;;;12.74;33.40
12676;BME280;63820;65.654;21.944;2023-05-02T13:38:37;100741.34;;;12.79;34.45
12676;BME280;63820;65.654;21.944;2023-05-02T13:41:22;100744.94;;;12.40;35.30
12676;BME280;63820;65.654;21.944;2023-05-02T13:44:07;100739.16;;;12.34;35.14
12676;BME280;63820;65.654;21.944;2023-05-02T13:46:52;100740.03;;;12.52;35.82
12676;BME280;63820;65.654;21.944;2023-05-02T13:49:36;100736.56;;;12.70;34.84
12676;BME280;63820;65.654;21.944;2023-05-02T13:52:20;100744.25;;;12.73;35.80
12676;BME280;63820;65.654;21.944;2023-05-02T13:55:04;100744.66;;;13.36;34.71
12676;BME280;63820;65.654;21.944;2023-05-02T13:57:49;100732.56;;;14.32;33.55
12676;BME280;63820;65.654;21.944;2023-05-02T14:00:34;100738.84;;;15.07;32.46
12676;BME280;63820;65.654;21.944;2023-05-02T14:03:18;100744.63;;;15.28;32.47
12676;BME280;63820;65.654;21.944;2023-05-02T14:06:02;100743.53;;;15.46;31.72
12676;BME280;63820;65.654;21.944;2023-05-02T14:08:46;100742.78;;;14.84;32.14
12676;BME280;63820;65.654;21.944;2023-05-02T14:11:31;100746.94;;;15.18;32.05
12676;BME280;63820;65.654;21.944;2023-05-02T14:14:15;100745.16;;;15.19;32.80
12676;BME280;63820;65.654;21.944;2023-05-02T14:17:00;100743.38;;;15.19;32.04
12676;BME280;63820;65.654;21.944;2023-05-02T14:19:45;100749.75;;;14.99;31.52
12676;BME280;63820;65.654;21.944;2023-05-02T14:22:29;100747.66;;;14.45;31.80
12676;BME280;63820;65.654;21.944;2023-05-02T14:25:13;100753.13;;;13.74;32.20
12676;BME280;63820;65.654;21.944;2023-05-02T14:27:58;100760.19;;;13.22;32.59
12676;BME280;63820;65.654;21.944;2023-05-02T14:30:47;100766.56;;;13.51;33.36
12676;BME280;63820;65.654;21.944;2023-05-02T14:33:31;100764.44;;;13.74;33.53
12676;BME280;63820;65.654;21.944;2023-05-02T14:36:15;100759.34;;;13.21;33.98
12676;BME280;63820;65.654;21.944;2023-05-02T14:38:59;100767.59;;;13.12;34.61
12676;BME280;63820;65.654;21.944;2023-05-02T14:41:43;100768.22;;;12.81;35.15
12676;BME280;63820;65.654;21.944;2023-05-02T14:44:27;100766.72;;;12.94;35.11
12676;BME280;63820;65.654;21.944;2023-05-02T14:47:12;100770.25;;;12.93;35.04
12676;BME280;63820;65.654;21.944;2023-05-02T14:49:56;100772.59;;;12.81;34.67
12676;BME280;63820;65.654;21.944;2023-05-02T14:52:40;100777.81;;;12.44;35.65
12676;BME280;63820;65.654;21.944;2023-05-02T14:55:25;100771.91;;;12.02;36.07
12676;BME280;63820;65.654;21.944;2023-05-02T14:58:09;100773.66;;;12.40;35.15
12676;BME280;63820;65.654;21.944;2023-05-02T15:00:53;100773.97;;;12.70;34.61
12676;BME280;63820;65.654;21.944;2023-05-02T15:03:37;100770.69;;;12.84;33.94